Nearby METAR Reports

 

KBDU - Boulder Muni, Colorado, USA
Distance from station: ESE 5mi, 9km
Updated: Sun, 21-Oct-2018 11:53pm MDT
Clear
Clear
 Wind from S
Wind: S 3 mph , 6 km/h
Temperature: 52°F , 11°C
Dew Point: 32°F , 0°C
Humidity: 47%
Barometer: 30.15 inHg , 1021 hPa
Clouds: Clear
Visibility: 10 miles , 16 km
2018/10/22 05:53 KBDU 220553Z AUTO 18003KT 10SM CLR 11/00 A3015 RMK AO2
KLMO - Longmont/Vbrand, Colorado, USA
Distance from station: NE 11mi, 18km
Updated: Sun, 21-Oct-2018 11:55pm MDT
Clear
Clear
 Wind from WSW
Wind: WSW 5 mph , 7 km/h
Temperature: 50°F , 10°C
Wind Chill: 48°F , 9°C
Dew Point: 34°F , 1°C
Humidity: 54%
Barometer: 30.16 inHg , 1021.3 hPa
Clouds: Clear
Visibility: 10 miles , 16 km
2018/10/22 05:55 KLMO 220555Z AUTO 24004KT 10SM CLR 10/01 A3016 RMK AO2 T01010005
 
KEIK - Erie Muni, Colorado, USA
Distance from station: ESE 15mi, 24km
Updated: Sun, 21-Oct-2018 11:54pm MDT
Clear
Clear
 Wind from calm
Wind: Calm
Temperature: 43°F , 6°C
Dew Point: 34°F , 1°C
Humidity: 71%
Barometer: 30.21 inHg , 1023 hPa
Clouds: Clear
Visibility: 10 miles , 16 km
2018/10/22 05:54 KEIK 220554Z AUTO 00000KT 10SM CLR 06/01 A3021 RMK AO2 T00570007
KBJC - Broomfield/Jeffc, Colorado, USA
Distance from station: SE 17mi, 27km
Updated: Sun, 21-Oct-2018 11:53pm MDT
Clear
Clear
 Wind from WNW
Wind: WNW 8 mph , 13 km/h
Temperature: 50°F , 10°C
Wind Chill: 47°F , 8°C
Dew Point: 32°F , 0°C
Humidity: 50%
Barometer: 30.17 inHg , 1021.7 hPa
Clouds: Clear
Visibility: 10 miles , 16 km
2018/10/22 05:53 KBJC 220553Z AUTO 29007KT 10SM CLR 10/00 A3017 RMK AO2
 
KFNL - Ft Collins/Lovel, Colorado, USA
Distance from station: NNE 31mi, 50km
Updated: Sun, 21-Oct-2018 11:56pm MDT
Clear
Clear
 Wind from NE
Wind: NE 6 mph , 9 km/h
Temperature: 54°F , 12°C
Dew Point: 32°F , 0°C
Humidity: 44%
Barometer: 30.15 inHg , 1021 hPa
Clouds: Clear
Visibility: 10 miles , 16 km
2018/10/22 05:56 KFNL 220556Z AUTO 04005KT 10SM CLR 12/00 A3015 RMK AO2 SLP170 6//// T01170000 10206 20106 51005 PNO $
KDEN - Denver (dia), Colorado, USA
Distance from station: ESE 39mi, 62km
Updated: Sun, 21-Oct-2018 11:53pm MDT
Partly cloudy
Partly cloudy
 Wind from SSW
Wind: SSW 8 mph , 13 km/h
Temperature: 52°F , 11°C
Dew Point: 27°F , -3°C
Humidity: 38%
Barometer: 30.15 inHg , 1021 hPa
Clouds: Partly cloudy
Visibility: 10 miles , 16 km
Cloud details: Partly cloudy 22000 ft
2018/10/22 05:53 KDEN 220553Z 21007KT 10SM SCT220 11/M03 A3015 RMK AO2 SLP152 T01061033 10178 20089 50005 $
 
KBKF - Buckley Angb/Den, Colorado, USA
Distance from station: SE 39mi, 63km
Updated: Sun, 21-Oct-2018 11:58pm MDT
Few Clouds
Few Clouds
 Wind from SSE
Wind: SSE 3 mph , 6 km/h
Temperature: 50°F , 10°C
Dew Point: 27°F , -3°C
Humidity: 40%
Barometer: 30.18 inHg , 1022 hPa
Clouds: Few Clouds
Visibility: 10 miles , 16 km
Cloud details: Few Clouds 12000 ft
Few Clouds 22000 ft
2018/10/22 05:58 KBKF 220558Z 15003KT 10SM FEW120 FEW220 10/M03 A3018 RMK AO2A SLP168 T01031027 10173 20076 52008
KAPA - Denver/Arapahoe, Colorado, USA
Distance from station: SE 43mi, 69km
Updated: Sun, 21-Oct-2018 11:53pm MDT
Few Clouds
Few Clouds
 Wind from ESE
Wind: ESE 5 mph , 7 km/h
Temperature: 46°F , 8°C
Wind Chill: 44°F , 7°C
Dew Point: 28°F , -2°C
Humidity: 50%
Barometer: 30.18 inHg , 1022 hPa
Clouds: Few Clouds
Visibility: 10 miles , 16 km
Cloud details: Few Clouds 22000 ft
2018/10/22 05:53 KAPA 220553Z 12004KT 10SM FEW220 08/M02 A3018 RMK AO2 SLP181 T00781022 10189 20067 53004
 
KGXY - Greeley/Weld, Colorado, USA
Distance from station: NE 45mi, 72km
Updated: Sun, 21-Oct-2018 11:56pm MDT
Clear
Clear
 Wind from W
Wind: W 5 mph , 7 km/h
Temperature: 41°F , 5°C
Wind Chill: 38°F , 3°C
Dew Point: 30°F , -1°C
Humidity: 66%
Barometer: 30.15 inHg , 1021 hPa
Clouds: Clear
Visibility: 10 miles , 16 km
2018/10/22 05:56 KGXY 220556Z 26004KT 10SM CLR 05/M01 A3015 RMK AO2 SLP200 T00501006 10211 20050 53006
KFTG - Denver F. Range, Colorado, USA
Distance from station: ESE 46mi, 73km
Updated: Sun, 21-Oct-2018 11:48pm MDT
Clear
Clear
 Wind from WSW
Wind: WSW 7 mph , 11 km/h
Temperature: 52°F , 11°C
Dew Point: 28°F , -2°C
Humidity: 41%
Barometer: 30.16 inHg , 1021.3 hPa
Clouds: Clear
Visibility: 10 miles , 16 km
2018/10/22 05:48 KFTG 220548Z AUTO 24006KT 10SM CLR 11/M02 A3016 RMK AO2 T01081024